• Join FlightAware (Why Join?)
  • Login
  • US Flag 
12:50PM EDT


 

Airport Tracker/Info


-or-


 

Live Flight TrackerFlight Track Log ✈ C-GONN ✈ 09-Apr-2013 ✈ CYYC - CYKA

Flight Track Log - Related Links

Times and Time Zones

All times are in EDT time to prevent confusion due to time zone crossing. See the C-GONN flight status page for this flight to view local times or setup timezone preferences in your user account.

Time Position Orientation Groundspeed Altitude Reporting Facility
EDT Latitude Longitude Course Direction KTS MPH feet Rate Location/Type
02:58PM 51.0167 -114.1000 360° North 50 58 3,600  Level Edmonton Center
02:59PM 51.0167 -114.1000 360° North 10 12 3,600  Level Edmonton Center
03:00PM 51.0167 -114.1000 360° North 60 69 3,600  Level Edmonton Center
03:03PM 51.0167 -114.1000 180° South 20 23 3,600  Level Edmonton Center
03:05PM 51.0141 -114.2133 264° West  Level Estimated
03:12PM 50.9974 -114.8561 270° West  Level Estimated
03:13PM 50.9947 -114.9479 264° West  Level Estimated
03:14PM 51.0039 -115.0386 279° West  Level FlightAware Approximate
03:15PM 51.0130 -115.1294 279° West  Level FlightAware Approximate
03:16PM 51.0097 -115.2212 259° West  Level Estimated
03:17PM 51.0063 -115.3129 270° West  Level Estimated
03:18PM 51.0021 -115.4046 266° West  Level FlightAware Approximate
03:19PM 50.9986 -115.4963 263° West  Level Estimated
03:20PM 50.9909 -115.5874 262° West  Level FlightAware Approximate
03:21PM 50.9831 -115.6784 262° West  Level FlightAware Approximate
03:22PM 50.9752 -115.7694 262° West  Level FlightAware Approximate
03:23PM 50.9673 -115.8604 262° West  Level FlightAware Approximate
03:24PM 50.9593 -115.9513 262° West  Level FlightAware Approximate
03:25PM 50.9512 -116.0422 262° West  Level FlightAware Approximate
03:26PM 50.9430 -116.1331 262° West  Level FlightAware Approximate
03:27PM 50.9348 -116.2239 262° West  Level FlightAware Approximate
03:28PM 50.9265 -116.3147 262° West  Level FlightAware Approximate
03:29PM 50.9182 -116.4055 262° West  Level FlightAware Approximate
03:30PM 50.9099 -116.4950 262° West  Level FlightAware Approximate
03:30PM 51.0833 -114.0333 262° West 90 104 3,600  Level Edmonton Center
03:31PM 50.9015 -116.5845 262° West  Level FlightAware Approximate
03:31PM 51.0500 -114.0500 197° South 120 138 5,400  Level Edmonton Center
03:32PM 50.8983 -116.6749 262° West  Level Estimated
03:32PM 51.0167 -114.0667 197° South 150 173 6,500  Level Edmonton Center
03:33PM 50.8901 -116.7644 262° West  Level FlightAware Approximate
03:33PM 51.0500 -114.1333 309° West 140 161 7,700  Level Edmonton Center
03:34PM 50.8818 -116.8539 262° West  Level FlightAware Approximate
03:34PM 51.0500 -114.1833 270° West 160 184 8,600  Level Edmonton Center
03:35PM 51.0667 -114.2667 288° West 170 196 9,400 900 Climbing Edmonton Center
03:36PM 51.0667 -114.3500 270° West 170 196 10,500 900 Climbing Edmonton Center
03:37PM 51.0500 -114.4333 252° West 180 207 11,300 900 Climbing Edmonton Center
03:38PM 51.0500 -114.5167 270° West 180 207 12,300 960 Climbing Edmonton Center
03:39PM 51.0333 -114.5833 248° West 180 207 13,300 900 Climbing Edmonton Center
03:40PM 51.0333 -114.6667 270° West 190 219 14,100 900 Climbing Edmonton Center
03:41PM 51.0167 -114.7500 252° West 180 207 15,200 900 Climbing Edmonton Center
03:42PM 51.0167 -114.8333 270° West 180 207 15,900 720 Climbing Edmonton Center
03:43PM 51.0333 -114.9167 288° West 190 219 16,700 660 Climbing Edmonton Center
03:44PM 51.0167 -115.0000 252° West 190 219 17,300 600 Climbing Edmonton Center
03:45PM 51.0167 -115.1000 270° West 190 219 17,900 420 Climbing Edmonton Center
03:46PM 51.0000 -115.1833 252° West 200 230 18,200 420 Climbing Edmonton Center
03:47PM 51.0167 -115.2667 288° West 200 230 18,800 540 Climbing Edmonton Center
03:48PM 51.0000 -115.3667 255° West 190 219 19,300 480 Climbing Edmonton Center
03:49PM 51.0000 -115.4500 270° West 200 230 19,800 300 Climbing Edmonton Center
03:50PM 51.0167 -115.4500 360° North 200 230 19,900 60 Climbing Vancouver Center
03:51PM 51.0000 -115.5333 252° West 220 253 20,000  Climbing Vancouver Center
03:52PM 50.9833 -115.6500 257° West 230 265 20,000  Level Vancouver Center
03:53PM 51.0000 -115.7500 285° West 230 265 20,000  Level Vancouver Center
03:54PM 50.9833 -115.8500 255° West 240 276 20,000  Level Vancouver Center
03:55PM 50.9833 -115.9333 270° West 240 276 20,000  Level Vancouver Center
03:56PM 50.9667 -116.0500 257° West 240 276 20,000  Level Vancouver Center
03:56PM 50.9667 -116.1333 270° West 240 276 20,000  Level Edmonton Center
03:57PM 50.9500 -116.2500 257° West 240 276 20,000  Level Edmonton Center
03:58PM 50.9500 -116.3500 270° West 240 276 20,000  Level Edmonton Center
03:59PM 50.9500 -116.4667 270° West 240 276 20,000  Level Edmonton Center
04:00PM 50.9333 -116.5667 255° West 240 276 20,000  Level Edmonton Center
04:01PM 50.9167 -116.6667 255° West 240 276 20,000  Level Edmonton Center
04:02PM 50.9333 -116.7833 283° West 240 276 20,000  Level Edmonton Center
04:03PM 50.9500 -116.8000 328° Northwest 240 276 20,000  Level Vancouver Center
04:04PM 50.9333 -116.9000 255° West 240 276 20,000  Level Vancouver Center
04:05PM 50.9333 -117.0167 270° West 240 276 20,000  Level Vancouver Center
04:06PM 50.9167 -117.1167 255° West 240 276 20,000  Level Vancouver Center
04:07PM 50.9000 -117.2000 252° West 240 276 20,000  Level Vancouver Center
04:08PM 50.9167 -117.3000 285° West 240 276 20,000  Level Vancouver Center
04:09PM 50.9000 -117.4167 257° West 240 276 20,000  Level Vancouver Center
04:10PM 50.8833 -117.5167 255° West 240 276 20,000  Level Vancouver Center
04:11PM 50.8833 -117.6333 270° West 240 276 20,000  Level Vancouver Center
04:12PM 50.8833 -117.7333 270° West 240 276 20,000  Level Vancouver Center
04:13PM 50.8667 -117.8333 255° West 240 276 20,000  Level Vancouver Center
04:14PM 50.8667 -117.9500 270° West 240 276 20,000  Level Vancouver Center
04:15PM 50.8500 -118.0500 255° West 240 276 20,000  Level Vancouver Center
04:16PM 50.8500 -118.1667 270° West 240 276 20,000  Level Vancouver Center
04:17PM 50.8167 -118.2500 238° Southwest 240 276 20,000  Level Vancouver Center
04:18PM 50.8167 -118.3500 270° West 240 276 20,000  Level Vancouver Center
04:19PM 50.7833 -118.4667 246° West 240 276 20,000  Level Vancouver Center
04:20PM 50.7667 -118.5667 255° West 240 276 20,000  Level Vancouver Center
04:21PM 50.7667 -118.6500 270° West 240 276 20,000  Level Vancouver Center
04:22PM 50.7333 -118.7500 242° Southwest 220 253 20,000 -420 Level Vancouver Center
04:23PM 50.7167 -118.8333 252° West 210 242 19,200 -900 Descending Vancouver Center
04:24PM 50.7000 -118.9167 253° West 210 242 18,200 -900 Descending Vancouver Center
04:25PM 50.6833 -119.0000 253° West 210 242 17,400 -900 Descending Vancouver Center
04:26PM 50.6833 -119.0833 270° West 200 230 16,400 -1,020 Descending Vancouver Center
04:27PM 50.6500 -119.1833 242° Southwest 200 230 15,400 -1,020 Descending Vancouver Center
04:28PM 50.6333 -119.2667 253° West 200 230 14,400 -960 Descending Vancouver Center
04:29PM 50.6167 -119.3500 253° West 200 230 13,500 -1,020 Descending Vancouver Center
04:30PM 50.6000 -119.4333 253° West 200 230 12,400 -1,080 Descending Vancouver Center
04:31PM 50.6000 -119.5167 270° West 200 230 11,400 -960 Descending Vancouver Center
04:32PM 50.5833 -119.5833 249° West 210 242 10,500 -900 Descending Vancouver Center
04:33PM 50.5667 -119.6667 253° West 200 230 9,600 -960 Descending Vancouver Center
04:34PM 50.5667 -119.7500 270° West 190 219 8,600 -1,080 Descending Vancouver Center
04:35PM 50.5833 -119.8333 288° West 180 207 7,500 -900 Descending Vancouver Center
04:36PM 50.5833 -119.9000 270° West 180 207 6,900 -600 Descending Vancouver Center
04:37PM 50.6167 -120.0167 294° West 190 219 6,300 -600 Descending Vancouver Center
04:38PM 50.6333 -120.0833 292° West 200 230 5,800 -540 Descending Vancouver Center
04:39PM 50.6333 -120.1667 270° West 200 230 5,300 -600 Descending Vancouver Center
04:40PM 50.6500 -120.2500 288° West 200 230 4,700 -720 Descending Vancouver Center
04:41PM 50.6833 -120.3167 308° West 210 242 3,900 -600 Descending Vancouver Center
04:42PM 50.7000 -120.4000 288° West 190 219 3,500 -300 Descending Vancouver Center
04:43PM 50.7167 -120.4833 288° West 170 196 3,300 -480 Descending Vancouver Center
04:44PM 50.7167 -120.5333 270° West 140 161 2,600 -720 Descending Vancouver Center